sensor_id;sensor_type;location;lat;lon;timestamp;P1;durP1;ratioP1;P2;durP2;ratioP2
27113;SDS011;14648;49.730;8.614;2023-02-11T00:00:14;46.50;;;19.67;;
27113;SDS011;14648;49.730;8.614;2023-02-11T00:02:40;46.33;;;20.93;;
27113;SDS011;14648;49.730;8.614;2023-02-11T00:05:06;34.53;;;17.80;;
27113;SDS011;14648;49.730;8.614;2023-02-11T00:07:33;36.20;;;18.53;;
27113;SDS011;14648;49.730;8.614;2023-02-11T00:09:59;41.73;;;17.67;;
27113;SDS011;14648;49.730;8.614;2023-02-11T00:12:26;40.00;;;18.07;;
27113;SDS011;14648;49.730;8.614;2023-02-11T00:14:53;35.40;;;18.80;;
27113;SDS011;14648;49.730;8.614;2023-02-11T00:19:48;36.63;;;19.30;;
27113;SDS011;14648;49.730;8.614;2023-02-11T00:22:15;34.47;;;18.33;;
27113;SDS011;14648;49.730;8.614;2023-02-11T00:24:41;42.50;;;16.60;;
27113;SDS011;14648;49.730;8.614;2023-02-11T00:27:06;38.60;;;19.37;;
27113;SDS011;14648;49.730;8.614;2023-02-11T00:29:32;35.83;;;17.97;;
27113;SDS011;14648;49.730;8.614;2023-02-11T00:31:57;37.73;;;18.80;;
27113;SDS011;14648;49.730;8.614;2023-02-11T00:34:29;39.63;;;17.97;;
27113;SDS011;14648;49.730;8.614;2023-02-11T00:36:58;35.87;;;18.37;;
27113;SDS011;14648;49.730;8.614;2023-02-11T00:39:23;33.47;;;17.83;;
27113;SDS011;14648;49.730;8.614;2023-02-11T00:41:49;36.60;;;17.80;;
27113;SDS011;14648;49.730;8.614;2023-02-11T00:44:15;32.33;;;15.87;;
27113;SDS011;14648;49.730;8.614;2023-02-11T00:46:41;33.30;;;16.67;;
27113;SDS011;14648;49.730;8.614;2023-02-11T00:49:06;33.90;;;17.57;;
27113;SDS011;14648;49.730;8.614;2023-02-11T00:51:32;30.60;;;16.30;;
27113;SDS011;14648;49.730;8.614;2023-02-11T00:53:58;31.37;;;16.47;;
27113;SDS011;14648;49.730;8.614;2023-02-11T00:56:23;29.00;;;16.10;;
27113;SDS011;14648;49.730;8.614;2023-02-11T00:58:50;35.90;;;16.87;;
27113;SDS011;14648;49.730;8.614;2023-02-11T01:01:16;31.63;;;17.63;;
27113;SDS011;14648;49.730;8.614;2023-02-11T01:03:41;30.67;;;18.23;;
27113;SDS011;14648;49.730;8.614;2023-02-11T01:06:07;33.97;;;17.33;;
27113;SDS011;14648;49.730;8.614;2023-02-11T01:08:33;36.93;;;18.20;;
27113;SDS011;14648;49.730;8.614;2023-02-11T01:11:01;31.50;;;16.13;;
27113;SDS011;14648;49.730;8.614;2023-02-11T01:13:31;39.27;;;17.30;;
27113;SDS011;14648;49.730;8.614;2023-02-11T01:15:59;33.40;;;14.87;;
27113;SDS011;14648;49.730;8.614;2023-02-11T01:18:25;30.60;;;15.30;;
27113;SDS011;14648;49.730;8.614;2023-02-11T01:20:51;30.63;;;15.97;;
27113;SDS011;14648;49.730;8.614;2023-02-11T01:23:18;35.27;;;16.83;;
27113;SDS011;14648;49.730;8.614;2023-02-11T01:25:44;31.57;;;16.87;;
27113;SDS011;14648;49.730;8.614;2023-02-11T01:30:48;28.90;;;14.50;;
27113;SDS011;14648;49.730;8.614;2023-02-11T01:33:14;29.47;;;16.10;;
27113;SDS011;14648;49.730;8.614;2023-02-11T01:35:39;29.47;;;14.87;;
27113;SDS011;14648;49.730;8.614;2023-02-11T01:38:06;32.93;;;16.33;;
27113;SDS011;14648;49.730;8.614;2023-02-11T01:40:39;27.43;;;15.20;;
27113;SDS011;14648;49.730;8.614;2023-02-11T01:43:05;31.20;;;15.03;;
27113;SDS011;14648;49.730;8.614;2023-02-11T01:48:09;28.23;;;15.20;;
27113;SDS011;14648;49.730;8.614;2023-02-11T01:50:43;28.13;;;15.13;;
27113;SDS011;14648;49.730;8.614;2023-02-11T01:53:13;36.80;;;16.60;;
27113;SDS011;14648;49.730;8.614;2023-02-11T01:55:58;35.40;;;17.87;;
27113;SDS011;14648;49.730;8.614;2023-02-11T01:58:43;32.37;;;15.80;;
27113;SDS011;14648;49.730;8.614;2023-02-11T02:01:12;27.70;;;15.70;;
27113;SDS011;14648;49.730;8.614;2023-02-11T02:03:43;40.20;;;17.23;;
27113;SDS011;14648;49.730;8.614;2023-02-11T02:06:32;33.10;;;15.97;;
27113;SDS011;14648;49.730;8.614;2023-02-11T02:09:10;29.07;;;14.93;;
27113;SDS011;14648;49.730;8.614;2023-02-11T02:11:47;28.27;;;14.60;;
27113;SDS011;14648;49.730;8.614;2023-02-11T02:14:14;32.30;;;16.70;;
27113;SDS011;14648;49.730;8.614;2023-02-11T02:16:40;31.43;;;16.60;;
27113;SDS011;14648;49.730;8.614;2023-02-11T02:22:44;25.63;;;13.60;;
27113;SDS011;14648;49.730;8.614;2023-02-11T02:31:56;27.67;;;15.07;;
27113;SDS011;14648;49.730;8.614;2023-02-11T02:40:20;34.77;;;16.47;;
27113;SDS011;14648;49.730;8.614;2023-02-11T02:43:00;31.80;;;16.60;;
27113;SDS011;14648;49.730;8.614;2023-02-11T02:45:27;27.10;;;15.93;;
27113;SDS011;14648;49.730;8.614;2023-02-11T02:47:53;24.53;;;14.60;;
27113;SDS011;14648;49.730;8.614;2023-02-11T02:50:20;28.77;;;15.77;;
27113;SDS011;14648;49.730;8.614;2023-02-11T02:53:02;25.23;;;13.00;;
27113;SDS011;14648;49.730;8.614;2023-02-11T02:55:43;25.83;;;14.10;;
27113;SDS011;14648;49.730;8.614;2023-02-11T02:58:35;27.07;;;14.47;;
27113;SDS011;14648;49.730;8.614;2023-02-11T03:01:25;26.30;;;13.50;;
27113;SDS011;14648;49.730;8.614;2023-02-11T03:07:11;24.73;;;14.60;;
27113;SDS011;14648;49.730;8.614;2023-02-11T03:09:58;30.93;;;15.00;;
27113;SDS011;14648;49.730;8.614;2023-02-11T03:12:43;27.67;;;13.97;;
27113;SDS011;14648;49.730;8.614;2023-02-11T03:15:12;26.97;;;15.00;;
27113;SDS011;14648;49.730;8.614;2023-02-11T03:17:40;32.73;;;13.50;;
27113;SDS011;14648;49.730;8.614;2023-02-11T03:20:10;29.97;;;15.10;;
27113;SDS011;14648;49.730;8.614;2023-02-11T03:22:41;22.70;;;12.50;;
27113;SDS011;14648;49.730;8.614;2023-02-11T03:25:12;25.97;;;14.73;;
27113;SDS011;14648;49.730;8.614;2023-02-11T03:27:40;26.03;;;14.20;;
27113;SDS011;14648;49.730;8.614;2023-02-11T03:30:17;28.17;;;15.63;;
27113;SDS011;14648;49.730;8.614;2023-02-11T03:32:51;23.60;;;12.37;;
27113;SDS011;14648;49.730;8.614;2023-02-11T03:35:27;28.10;;;16.17;;
27113;SDS011;14648;49.730;8.614;2023-02-11T03:38:09;30.20;;;14.63;;
27113;SDS011;14648;49.730;8.614;2023-02-11T03:40:41;24.10;;;12.73;;
27113;SDS011;14648;49.730;8.614;2023-02-11T03:43:25;29.57;;;14.97;;
27113;SDS011;14648;49.730;8.614;2023-02-11T03:45:57;27.73;;;14.37;;
27113;SDS011;14648;49.730;8.614;2023-02-11T03:48:29;33.97;;;16.17;;
27113;SDS011;14648;49.730;8.614;2023-02-11T03:51:04;30.43;;;15.17;;
27113;SDS011;14648;49.730;8.614;2023-02-11T03:53:33;26.97;;;14.27;;
27113;SDS011;14648;49.730;8.614;2023-02-11T03:56:02;31.63;;;16.80;;
27113;SDS011;14648;49.730;8.614;2023-02-11T03:58:31;28.07;;;16.70;;
27113;SDS011;14648;49.730;8.614;2023-02-11T04:00:57;29.87;;;14.97;;
27113;SDS011;14648;49.730;8.614;2023-02-11T04:03:23;27.63;;;14.70;;
27113;SDS011;14648;49.730;8.614;2023-02-11T04:05:49;34.47;;;15.80;;
27113;SDS011;14648;49.730;8.614;2023-02-11T04:08:15;29.10;;;15.30;;
27113;SDS011;14648;49.730;8.614;2023-02-11T04:10:40;30.00;;;16.23;;
27113;SDS011;14648;49.730;8.614;2023-02-11T04:13:06;27.83;;;15.17;;
27113;SDS011;14648;49.730;8.614;2023-02-11T04:15:32;26.90;;;15.60;;
27113;SDS011;14648;49.730;8.614;2023-02-11T04:17:57;35.87;;;16.80;;
27113;SDS011;14648;49.730;8.614;2023-02-11T04:20:23;28.93;;;14.97;;
27113;SDS011;14648;49.730;8.614;2023-02-11T04:22:50;28.13;;;13.73;;
27113;SDS011;14648;49.730;8.614;2023-02-11T04:25:15;30.63;;;16.13;;
27113;SDS011;14648;49.730;8.614;2023-02-11T04:27:41;28.33;;;15.13;;
27113;SDS011;14648;49.730;8.614;2023-02-11T04:30:07;30.93;;;16.17;;
27113;SDS011;14648;49.730;8.614;2023-02-11T04:32:36;30.93;;;15.60;;
27113;SDS011;14648;49.730;8.614;2023-02-11T04:35:01;23.73;;;14.27;;
27113;SDS011;14648;49.730;8.614;2023-02-11T04:37:27;27.13;;;14.53;;
27113;SDS011;14648;49.730;8.614;2023-02-11T04:39:53;28.83;;;15.87;;
27113;SDS011;14648;49.730;8.614;2023-02-11T04:42:18;33.17;;;15.63;;
27113;SDS011;14648;49.730;8.614;2023-02-11T04:44:44;31.70;;;16.07;;
27113;SDS011;14648;49.730;8.614;2023-02-11T04:47:10;29.60;;;15.30;;
27113;SDS011;14648;49.730;8.614;2023-02-11T04:49:37;34.30;;;15.47;;
27113;SDS011;14648;49.730;8.614;2023-02-11T04:52:03;26.40;;;14.13;;
27113;SDS011;14648;49.730;8.614;2023-02-11T04:54:29;25.03;;;13.60;;
27113;SDS011;14648;49.730;8.614;2023-02-11T04:56:54;28.63;;;14.50;;
27113;SDS011;14648;49.730;8.614;2023-02-11T04:59:20;29.83;;;14.40;;
27113;SDS011;14648;49.730;8.614;2023-02-11T05:01:46;30.20;;;16.50;;
27113;SDS011;14648;49.730;8.614;2023-02-11T05:04:11;27.83;;;15.87;;
27113;SDS011;14648;49.730;8.614;2023-02-11T05:06:38;31.13;;;15.60;;
27113;SDS011;14648;49.730;8.614;2023-02-11T05:09:04;33.23;;;15.70;;
27113;SDS011;14648;49.730;8.614;2023-02-11T05:11:29;32.67;;;16.60;;
27113;SDS011;14648;49.730;8.614;2023-02-11T05:13:55;29.93;;;16.77;;
27113;SDS011;14648;49.730;8.614;2023-02-11T05:16:21;32.00;;;15.47;;
27113;SDS011;14648;49.730;8.614;2023-02-11T05:18:47;32.33;;;16.50;;
27113;SDS011;14648;49.730;8.614;2023-02-11T05:21:14;29.43;;;16.00;;
27113;SDS011;14648;49.730;8.614;2023-02-11T05:23:43;32.07;;;16.07;;
27113;SDS011;14648;49.730;8.614;2023-02-11T05:26:10;34.60;;;15.93;;
27113;SDS011;14648;49.730;8.614;2023-02-11T05:28:36;25.60;;;14.43;;
27113;SDS011;14648;49.730;8.614;2023-02-11T05:31:02;28.90;;;14.10;;
27113;SDS011;14648;49.730;8.614;2023-02-11T05:33:30;26.60;;;15.47;;
27113;SDS011;14648;49.730;8.614;2023-02-11T05:35:59;31.97;;;16.57;;
27113;SDS011;14648;49.730;8.614;2023-02-11T05:38:29;25.40;;;13.73;;
27113;SDS011;14648;49.730;8.614;2023-02-11T05:40:55;31.47;;;15.83;;
27113;SDS011;14648;49.730;8.614;2023-02-11T05:43:21;31.77;;;15.27;;
27113;SDS011;14648;49.730;8.614;2023-02-11T05:45:47;27.80;;;15.27;;
27113;SDS011;14648;49.730;8.614;2023-02-11T05:48:12;22.47;;;14.73;;
27113;SDS011;14648;49.730;8.614;2023-02-11T05:50:38;28.50;;;16.00;;
27113;SDS011;14648;49.730;8.614;2023-02-11T05:53:04;27.07;;;14.50;;
27113;SDS011;14648;49.730;8.614;2023-02-11T05:55:30;27.90;;;15.80;;
27113;SDS011;14648;49.730;8.614;2023-02-11T05:57:57;25.97;;;15.03;;
27113;SDS011;14648;49.730;8.614;2023-02-11T06:00:22;30.87;;;16.00;;
27113;SDS011;14648;49.730;8.614;2023-02-11T06:02:48;28.60;;;14.13;;
27113;SDS011;14648;49.730;8.614;2023-02-11T06:05:14;31.10;;;16.27;;
27113;SDS011;14648;49.730;8.614;2023-02-11T06:07:40;31.93;;;16.57;;
27113;SDS011;14648;49.730;8.614;2023-02-11T06:10:06;38.53;;;15.60;;
27113;SDS011;14648;49.730;8.614;2023-02-11T06:12:32;33.20;;;17.80;;
27113;SDS011;14648;49.730;8.614;2023-02-11T06:14:58;31.90;;;15.73;;
27113;SDS011;14648;49.730;8.614;2023-02-11T06:17:24;30.17;;;15.30;;
27113;SDS011;14648;49.730;8.614;2023-02-11T06:19:50;33.37;;;16.30;;
27113;SDS011;14648;49.730;8.614;2023-02-11T06:22:15;31.10;;;15.20;;
27113;SDS011;14648;49.730;8.614;2023-02-11T06:24:41;32.47;;;16.53;;
27113;SDS011;14648;49.730;8.614;2023-02-11T06:27:07;29.87;;;16.00;;
27113;SDS011;14648;49.730;8.614;2023-02-11T06:29:32;29.13;;;15.17;;
27113;SDS011;14648;49.730;8.614;2023-02-11T06:31:58;24.47;;;14.27;;
27113;SDS011;14648;49.730;8.614;2023-02-11T06:34:24;27.23;;;15.57;;
27113;SDS011;14648;49.730;8.614;2023-02-11T06:36:51;32.10;;;15.20;;
27113;SDS011;14648;49.730;8.614;2023-02-11T06:39:16;29.33;;;14.83;;
27113;SDS011;14648;49.730;8.614;2023-02-11T06:41:42;31.47;;;13.20;;
27113;SDS011;14648;49.730;8.614;2023-02-11T06:44:10;31.17;;;16.90;;
27113;SDS011;14648;49.730;8.614;2023-02-11T06:46:35;33.40;;;16.33;;
27113;SDS011;14648;49.730;8.614;2023-02-11T06:49:01;31.67;;;14.90;;
27113;SDS011;14648;49.730;8.614;2023-02-11T06:51:27;31.30;;;14.83;;
27113;SDS011;14648;49.730;8.614;2023-02-11T06:53:52;35.10;;;17.27;;
27113;SDS011;14648;49.730;8.614;2023-02-11T06:56:21;33.53;;;14.70;;
27113;SDS011;14648;49.730;8.614;2023-02-11T06:58:51;30.23;;;15.60;;
27113;SDS011;14648;49.730;8.614;2023-02-11T07:01:20;30.97;;;16.60;;
27113;SDS011;14648;49.730;8.614;2023-02-11T07:03:47;26.53;;;12.70;;
27113;SDS011;14648;49.730;8.614;2023-02-11T07:06:17;32.27;;;15.80;;
27113;SDS011;14648;49.730;8.614;2023-02-11T07:08:46;28.13;;;14.30;;
27113;SDS011;14648;49.730;8.614;2023-02-11T07:11:16;28.97;;;16.13;;
27113;SDS011;14648;49.730;8.614;2023-02-11T07:13:48;30.63;;;17.73;;
27113;SDS011;14648;49.730;8.614;2023-02-11T07:16:16;39.53;;;17.83;;
27113;SDS011;14648;49.730;8.614;2023-02-11T07:18:43;27.93;;;16.07;;
27113;SDS011;14648;49.730;8.614;2023-02-11T07:21:11;32.20;;;16.97;;
27113;SDS011;14648;49.730;8.614;2023-02-11T07:23:38;32.97;;;16.80;;
27113;SDS011;14648;49.730;8.614;2023-02-11T07:26:08;36.63;;;16.13;;
27113;SDS011;14648;49.730;8.614;2023-02-11T07:28:37;30.23;;;16.23;;
27113;SDS011;14648;49.730;8.614;2023-02-11T07:31:11;26.50;;;14.00;;
27113;SDS011;14648;49.730;8.614;2023-02-11T07:33:50;31.50;;;16.10;;
27113;SDS011;14648;49.730;8.614;2023-02-11T07:36:18;34.43;;;16.90;;
27113;SDS011;14648;49.730;8.614;2023-02-11T07:38:44;28.50;;;15.83;;
27113;SDS011;14648;49.730;8.614;2023-02-11T07:41:15;29.87;;;14.90;;
27113;SDS011;14648;49.730;8.614;2023-02-11T07:43:45;36.83;;;15.97;;
27113;SDS011;14648;49.730;8.614;2023-02-11T07:46:15;29.43;;;15.60;;
27113;SDS011;14648;49.730;8.614;2023-02-11T07:48:47;26.47;;;14.30;;
27113;SDS011;14648;49.730;8.614;2023-02-11T07:51:15;24.30;;;14.77;;
27113;SDS011;14648;49.730;8.614;2023-02-11T07:53:43;29.93;;;16.20;;
27113;SDS011;14648;49.730;8.614;2023-02-11T07:56:10;31.33;;;15.47;;
27113;SDS011;14648;49.730;8.614;2023-02-11T07:58:37;32.33;;;15.87;;
27113;SDS011;14648;49.730;8.614;2023-02-11T08:01:03;30.00;;;16.33;;
27113;SDS011;14648;49.730;8.614;2023-02-11T08:03:32;33.07;;;17.47;;
27113;SDS011;14648;49.730;8.614;2023-02-11T08:06:07;26.80;;;15.80;;
27113;SDS011;14648;49.730;8.614;2023-02-11T08:08:39;30.67;;;16.53;;
27113;SDS011;14648;49.730;8.614;2023-02-11T08:11:06;34.30;;;17.77;;
27113;SDS011;14648;49.730;8.614;2023-02-11T08:13:52;39.27;;;16.97;;
27113;SDS011;14648;49.730;8.614;2023-02-11T08:16:23;33.70;;;17.07;;
27113;SDS011;14648;49.730;8.614;2023-02-11T08:18:52;29.47;;;16.87;;
27113;SDS011;14648;49.730;8.614;2023-02-11T08:21:21;27.60;;;16.20;;
27113;SDS011;14648;49.730;8.614;2023-02-11T08:23:47;25.47;;;14.47;;
27113;SDS011;14648;49.730;8.614;2023-02-11T08:26:20;30.43;;;17.47;;
27113;SDS011;14648;49.730;8.614;2023-02-11T08:28:53;30.03;;;16.80;;
27113;SDS011;14648;49.730;8.614;2023-02-11T08:31:21;34.20;;;17.07;;
27113;SDS011;14648;49.730;8.614;2023-02-11T08:33:49;27.63;;;15.13;;
27113;SDS011;14648;49.730;8.614;2023-02-11T08:36:20;34.73;;;15.90;;
27113;SDS011;14648;49.730;8.614;2023-02-11T08:38:53;32.43;;;16.50;;
27113;SDS011;14648;49.730;8.614;2023-02-11T08:41:21;32.03;;;16.57;;
27113;SDS011;14648;49.730;8.614;2023-02-11T08:43:47;29.93;;;16.13;;
27113;SDS011;14648;49.730;8.614;2023-02-11T08:46:14;36.40;;;18.77;;
27113;SDS011;14648;49.730;8.614;2023-02-11T08:48:42;36.43;;;17.50;;
27113;SDS011;14648;49.730;8.614;2023-02-11T08:51:11;31.87;;;15.83;;
27113;SDS011;14648;49.730;8.614;2023-02-11T08:53:44;31.87;;;17.60;;
27113;SDS011;14648;49.730;8.614;2023-02-11T08:56:10;32.53;;;16.57;;
27113;SDS011;14648;49.730;8.614;2023-02-11T08:58:38;28.73;;;15.77;;
27113;SDS011;14648;49.730;8.614;2023-02-11T09:01:08;36.43;;;17.27;;
27113;SDS011;14648;49.730;8.614;2023-02-11T09:03:43;32.33;;;16.87;;
27113;SDS011;14648;49.730;8.614;2023-02-11T09:06:09;27.63;;;17.07;;
27113;SDS011;14648;49.730;8.614;2023-02-11T09:08:58;31.57;;;18.20;;
27113;SDS011;14648;49.730;8.614;2023-02-11T09:11:27;33.97;;;19.33;;
27113;SDS011;14648;49.730;8.614;2023-02-11T09:14:02;33.07;;;16.70;;
27113;SDS011;14648;49.730;8.614;2023-02-11T09:16:29;37.30;;;18.27;;
27113;SDS011;14648;49.730;8.614;2023-02-11T09:19:00;36.70;;;18.83;;
27113;SDS011;14648;49.730;8.614;2023-02-11T09:21:29;36.83;;;18.50;;
27113;SDS011;14648;49.730;8.614;2023-02-11T09:23:55;37.47;;;18.17;;
27113;SDS011;14648;49.730;8.614;2023-02-11T09:26:25;41.40;;;19.77;;
27113;SDS011;14648;49.730;8.614;2023-02-11T09:28:53;40.27;;;18.17;;
27113;SDS011;14648;49.730;8.614;2023-02-11T09:31:21;40.67;;;18.77;;
27113;SDS011;14648;49.730;8.614;2023-02-11T09:33:50;31.17;;;16.60;;
27113;SDS011;14648;49.730;8.614;2023-02-11T09:36:22;36.47;;;19.67;;
27113;SDS011;14648;49.730;8.614;2023-02-11T09:38:54;34.30;;;19.67;;
27113;SDS011;14648;49.730;8.614;2023-02-11T09:43:48;34.47;;;19.83;;
27113;SDS011;14648;49.730;8.614;2023-02-11T09:46:20;34.03;;;18.53;;
27113;SDS011;14648;49.730;8.614;2023-02-11T09:48:48;34.60;;;19.70;;
27113;SDS011;14648;49.730;8.614;2023-02-11T09:51:25;41.17;;;19.70;;
27113;SDS011;14648;49.730;8.614;2023-02-11T09:54:10;39.33;;;20.40;;
27113;SDS011;14648;49.730;8.614;2023-02-11T09:56:46;39.33;;;19.70;;
27113;SDS011;14648;49.730;8.614;2023-02-11T09:59:13;35.63;;;18.83;;
27113;SDS011;14648;49.730;8.614;2023-02-11T10:07:18;40.60;;;19.90;;
27113;SDS011;14648;49.730;8.614;2023-02-11T10:12:54;36.80;;;20.70;;
27113;SDS011;14648;49.730;8.614;2023-02-11T10:18:52;38.10;;;19.90;;
27113;SDS011;14648;49.730;8.614;2023-02-11T10:25:40;35.27;;;19.17;;
27113;SDS011;14648;49.730;8.614;2023-02-11T10:28:12;33.27;;;19.73;;
27113;SDS011;14648;49.730;8.614;2023-02-11T10:36:00;36.60;;;21.93;;
27113;SDS011;14648;49.730;8.614;2023-02-11T10:38:28;66.77;;;23.93;;
27113;SDS011;14648;49.730;8.614;2023-02-11T10:40:53;41.60;;;20.80;;
27113;SDS011;14648;49.730;8.614;2023-02-11T10:43:20;45.97;;;19.60;;
27113;SDS011;14648;49.730;8.614;2023-02-11T10:45:51;31.90;;;18.90;;
27113;SDS011;14648;49.730;8.614;2023-02-11T10:51:11;43.47;;;21.40;;
27113;SDS011;14648;49.730;8.614;2023-02-11T10:54:15;37.10;;;21.17;;
27113;SDS011;14648;49.730;8.614;2023-02-11T10:56:47;44.40;;;20.23;;
27113;SDS011;14648;49.730;8.614;2023-02-11T10:59:26;37.23;;;20.97;;
27113;SDS011;14648;49.730;8.614;2023-02-11T11:02:03;41.10;;;20.83;;
27113;SDS011;14648;49.730;8.614;2023-02-11T11:05:00;44.07;;;20.57;;
27113;SDS011;14648;49.730;8.614;2023-02-11T11:07:40;35.17;;;19.80;;
27113;SDS011;14648;49.730;8.614;2023-02-11T11:10:28;36.63;;;20.77;;
27113;SDS011;14648;49.730;8.614;2023-02-11T11:13:25;31.37;;;18.53;;
27113;SDS011;14648;49.730;8.614;2023-02-11T11:18:43;33.90;;;19.97;;
27113;SDS011;14648;49.730;8.614;2023-02-11T11:23:39;39.13;;;21.27;;
27113;SDS011;14648;49.730;8.614;2023-02-11T11:26:12;35.20;;;20.83;;
27113;SDS011;14648;49.730;8.614;2023-02-11T11:28:41;33.73;;;20.37;;
27113;SDS011;14648;49.730;8.614;2023-02-11T11:31:24;33.93;;;20.20;;
27113;SDS011;14648;49.730;8.614;2023-02-11T11:42:37;36.27;;;22.20;;
27113;SDS011;14648;49.730;8.614;2023-02-11T11:50:36;37.23;;;20.47;;
27113;SDS011;14648;49.730;8.614;2023-02-11T11:56:06;41.23;;;22.87;;
27113;SDS011;14648;49.730;8.614;2023-02-11T11:58:48;41.73;;;22.50;;
27113;SDS011;14648;49.730;8.614;2023-02-11T12:04:23;38.00;;;20.60;;
27113;SDS011;14648;49.730;8.614;2023-02-11T12:21:44;33.33;;;20.97;;
27113;SDS011;14648;49.730;8.614;2023-02-11T12:24:42;44.00;;;20.57;;
27113;SDS011;14648;49.730;8.614;2023-02-11T12:27:32;39.33;;;21.07;;
27113;SDS011;14648;49.730;8.614;2023-02-11T12:37:01;41.03;;;20.47;;
27113;SDS011;14648;49.730;8.614;2023-02-11T12:39:53;40.70;;;21.00;;
27113;SDS011;14648;49.730;8.614;2023-02-11T12:42:49;36.93;;;20.23;;
27113;SDS011;14648;49.730;8.614;2023-02-11T12:46:01;34.67;;;20.37;;
27113;SDS011;14648;49.730;8.614;2023-02-11T12:48:57;32.97;;;19.83;;
27113;SDS011;14648;49.730;8.614;2023-02-11T12:52:02;38.57;;;20.27;;
27113;SDS011;14648;49.730;8.614;2023-02-11T12:54:43;31.10;;;18.37;;
27113;SDS011;14648;49.730;8.614;2023-02-11T13:05:51;44.27;;;20.63;;
27113;SDS011;14648;49.730;8.614;2023-02-11T13:08:26;40.33;;;23.23;;
27113;SDS011;14648;49.730;8.614;2023-02-11T13:10:57;38.87;;;20.30;;
27113;SDS011;14648;49.730;8.614;2023-02-11T13:13:34;37.07;;;20.90;;
27113;SDS011;14648;49.730;8.614;2023-02-11T13:21:49;33.07;;;19.37;;
27113;SDS011;14648;49.730;8.614;2023-02-11T13:24:45;38.23;;;22.20;;
27113;SDS011;14648;49.730;8.614;2023-02-11T13:27:24;37.50;;;20.70;;
27113;SDS011;14648;49.730;8.614;2023-02-11T13:30:04;43.80;;;21.93;;
27113;SDS011;14648;49.730;8.614;2023-02-11T13:35:37;39.53;;;21.23;;
27113;SDS011;14648;49.730;8.614;2023-02-11T13:38:05;35.93;;;20.63;;
27113;SDS011;14648;49.730;8.614;2023-02-11T13:40:56;33.30;;;20.67;;
27113;SDS011;14648;49.730;8.614;2023-02-11T13:43:55;33.90;;;20.60;;
27113;SDS011;14648;49.730;8.614;2023-02-11T13:46:47;34.67;;;19.27;;
27113;SDS011;14648;49.730;8.614;2023-02-11T13:49:25;33.40;;;19.30;;
27113;SDS011;14648;49.730;8.614;2023-02-11T13:51:56;33.50;;;20.00;;
27113;SDS011;14648;49.730;8.614;2023-02-11T13:54:27;33.33;;;20.07;;
27113;SDS011;14648;49.730;8.614;2023-02-11T14:11:42;33.67;;;20.00;;
27113;SDS011;14648;49.730;8.614;2023-02-11T14:14:16;32.40;;;20.10;;
27113;SDS011;14648;49.730;8.614;2023-02-11T14:17:15;35.97;;;20.50;;
27113;SDS011;14648;49.730;8.614;2023-02-11T14:19:43;38.60;;;19.60;;
27113;SDS011;14648;49.730;8.614;2023-02-11T14:25:01;43.13;;;22.27;;
27113;SDS011;14648;49.730;8.614;2023-02-11T14:36:19;29.17;;;17.20;;
27113;SDS011;14648;49.730;8.614;2023-02-11T14:39:15;38.10;;;18.40;;
27113;SDS011;14648;49.730;8.614;2023-02-11T14:42:19;28.60;;;16.50;;
27113;SDS011;14648;49.730;8.614;2023-02-11T14:44:54;23.83;;;15.00;;
27113;SDS011;14648;49.730;8.614;2023-02-11T14:47:44;31.07;;;15.97;;
27113;SDS011;14648;49.730;8.614;2023-02-11T14:50:20;28.13;;;15.57;;
27113;SDS011;14648;49.730;8.614;2023-02-11T14:52:52;28.87;;;14.67;;
27113;SDS011;14648;49.730;8.614;2023-02-11T14:55:27;34.80;;;16.30;;
27113;SDS011;14648;49.730;8.614;2023-02-11T15:00:48;40.50;;;17.50;;
27113;SDS011;14648;49.730;8.614;2023-02-11T15:03:39;30.93;;;16.40;;
27113;SDS011;14648;49.730;8.614;2023-02-11T15:06:17;29.47;;;15.60;;
27113;SDS011;14648;49.730;8.614;2023-02-11T15:08:52;36.83;;;15.83;;
27113;SDS011;14648;49.730;8.614;2023-02-11T15:11:30;29.73;;;16.50;;
27113;SDS011;14648;49.730;8.614;2023-02-11T15:14:05;36.73;;;17.40;;
27113;SDS011;14648;49.730;8.614;2023-02-11T15:16:40;34.87;;;17.23;;
27113;SDS011;14648;49.730;8.614;2023-02-11T15:19:15;30.00;;;18.00;;
27113;SDS011;14648;49.730;8.614;2023-02-11T15:21:50;34.90;;;16.47;;
27113;SDS011;14648;49.730;8.614;2023-02-11T15:24:26;31.57;;;16.93;;
27113;SDS011;14648;49.730;8.614;2023-02-11T15:29:43;31.57;;;16.43;;
27113;SDS011;14648;49.730;8.614;2023-02-11T15:32:17;31.73;;;17.40;;
27113;SDS011;14648;49.730;8.614;2023-02-11T15:34:45;32.90;;;16.83;;
27113;SDS011;14648;49.730;8.614;2023-02-11T15:39:52;34.57;;;17.60;;
27113;SDS011;14648;49.730;8.614;2023-02-11T15:42:20;34.20;;;16.77;;
27113;SDS011;14648;49.730;8.614;2023-02-11T15:44:46;35.70;;;18.77;;
27113;SDS011;14648;49.730;8.614;2023-02-11T15:47:17;31.70;;;16.90;;
27113;SDS011;14648;49.730;8.614;2023-02-11T15:49:45;29.50;;;17.90;;
27113;SDS011;14648;49.730;8.614;2023-02-11T15:52:20;32.87;;;17.13;;
27113;SDS011;14648;49.730;8.614;2023-02-11T15:54:51;34.00;;;17.60;;
27113;SDS011;14648;49.730;8.614;2023-02-11T15:57:21;32.90;;;18.07;;
27113;SDS011;14648;49.730;8.614;2023-02-11T15:59:48;47.33;;;20.30;;
27113;SDS011;14648;49.730;8.614;2023-02-11T16:02:20;39.60;;;18.30;;
27113;SDS011;14648;49.730;8.614;2023-02-11T16:04:57;39.70;;;20.13;;
27113;SDS011;14648;49.730;8.614;2023-02-11T16:07:47;30.63;;;17.10;;
27113;SDS011;14648;49.730;8.614;2023-02-11T16:10:22;34.70;;;16.80;;
27113;SDS011;14648;49.730;8.614;2023-02-11T16:20:58;27.73;;;16.83;;
27113;SDS011;14648;49.730;8.614;2023-02-11T16:23:30;32.77;;;16.50;;
27113;SDS011;14648;49.730;8.614;2023-02-11T16:26:04;28.30;;;15.20;;
27113;SDS011;14648;49.730;8.614;2023-02-11T16:28:39;33.97;;;16.37;;
27113;SDS011;14648;49.730;8.614;2023-02-11T16:31:10;39.30;;;17.83;;
27113;SDS011;14648;49.730;8.614;2023-02-11T16:33:37;27.10;;;16.30;;
27113;SDS011;14648;49.730;8.614;2023-02-11T16:36:12;32.57;;;17.13;;
27113;SDS011;14648;49.730;8.614;2023-02-11T16:38:41;32.60;;;15.50;;
27113;SDS011;14648;49.730;8.614;2023-02-11T16:41:07;34.20;;;15.30;;
27113;SDS011;14648;49.730;8.614;2023-02-11T16:43:35;26.87;;;14.60;;
27113;SDS011;14648;49.730;8.614;2023-02-11T16:46:01;30.50;;;16.00;;
27113;SDS011;14648;49.730;8.614;2023-02-11T16:48:38;27.63;;;15.10;;
27113;SDS011;14648;49.730;8.614;2023-02-11T16:51:03;22.40;;;14.40;;
27113;SDS011;14648;49.730;8.614;2023-02-11T16:53:34;28.23;;;15.60;;
27113;SDS011;14648;49.730;8.614;2023-02-11T16:55:59;26.57;;;16.67;;
27113;SDS011;14648;49.730;8.614;2023-02-11T16:58:25;26.00;;;15.13;;
27113;SDS011;14648;49.730;8.614;2023-02-11T17:00:52;25.90;;;14.87;;
27113;SDS011;14648;49.730;8.614;2023-02-11T17:03:22;25.77;;;14.83;;
27113;SDS011;14648;49.730;8.614;2023-02-11T17:05:51;28.00;;;15.47;;
27113;SDS011;14648;49.730;8.614;2023-02-11T17:08:17;29.67;;;16.00;;
27113;SDS011;14648;49.730;8.614;2023-02-11T17:10:43;33.50;;;14.93;;
27113;SDS011;14648;49.730;8.614;2023-02-11T17:13:10;26.57;;;14.00;;
27113;SDS011;14648;49.730;8.614;2023-02-11T17:15:48;25.27;;;15.40;;
27113;SDS011;14648;49.730;8.614;2023-02-11T17:18:13;23.70;;;13.80;;
27113;SDS011;14648;49.730;8.614;2023-02-11T17:20:39;29.57;;;14.23;;
27113;SDS011;14648;49.730;8.614;2023-02-11T17:23:07;25.80;;;15.13;;
27113;SDS011;14648;49.730;8.614;2023-02-11T17:25:34;24.43;;;14.53;;